sensor_id;sensor_type;location;lat;lon;timestamp;P1;durP1;ratioP1;P2;durP2;ratioP2
14754;SDS011;7469;50.906;6.952;2023-03-01T00:01:17;4.97;;;3.80;;
14754;SDS011;7469;50.906;6.952;2023-03-01T00:03:47;6.07;;;3.90;;
14754;SDS011;7469;50.906;6.952;2023-03-01T00:06:15;5.80;;;4.20;;
14754;SDS011;7469;50.906;6.952;2023-03-01T00:08:43;5.73;;;4.17;;
14754;SDS011;7469;50.906;6.952;2023-03-01T00:11:12;4.77;;;3.80;;
14754;SDS011;7469;50.906;6.952;2023-03-01T00:13:42;8.80;;;4.40;;
14754;SDS011;7469;50.906;6.952;2023-03-01T00:16:11;9.30;;;4.27;;
14754;SDS011;7469;50.906;6.952;2023-03-01T00:18:43;5.57;;;3.63;;
14754;SDS011;7469;50.906;6.952;2023-03-01T00:21:11;6.60;;;3.90;;
14754;SDS011;7469;50.906;6.952;2023-03-01T00:23:39;4.77;;;3.87;;
14754;SDS011;7469;50.906;6.952;2023-03-01T00:26:09;6.03;;;3.97;;
14754;SDS011;7469;50.906;6.952;2023-03-01T00:28:38;8.73;;;4.73;;
14754;SDS011;7469;50.906;6.952;2023-03-01T00:31:07;8.23;;;3.90;;
14754;SDS011;7469;50.906;6.952;2023-03-01T00:33:37;5.03;;;3.60;;
14754;SDS011;7469;50.906;6.952;2023-03-01T00:36:07;9.33;;;4.43;;
14754;SDS011;7469;50.906;6.952;2023-03-01T00:38:36;8.83;;;3.90;;
14754;SDS011;7469;50.906;6.952;2023-03-01T00:41:05;7.07;;;4.07;;
14754;SDS011;7469;50.906;6.952;2023-03-01T00:43:34;7.37;;;4.23;;
14754;SDS011;7469;50.906;6.952;2023-03-01T00:46:03;4.83;;;3.90;;
14754;SDS011;7469;50.906;6.952;2023-03-01T00:48:33;4.63;;;3.87;;
14754;SDS011;7469;50.906;6.952;2023-03-01T00:51:04;7.47;;;3.97;;
14754;SDS011;7469;50.906;6.952;2023-03-01T00:53:36;4.37;;;3.70;;
14754;SDS011;7469;50.906;6.952;2023-03-01T00:56:05;5.23;;;3.77;;
14754;SDS011;7469;50.906;6.952;2023-03-01T00:58:34;6.00;;;3.90;;
14754;SDS011;7469;50.906;6.952;2023-03-01T01:01:06;7.65;;;3.85;;
14754;SDS011;7469;50.906;6.952;2023-03-01T01:03:44;9.15;;;3.35;;
14754;SDS011;7469;50.906;6.952;2023-03-01T01:06:27;4.63;;;3.53;;
14754;SDS011;7469;50.906;6.952;2023-03-01T01:08:58;6.00;;;3.30;;
14754;SDS011;7469;50.906;6.952;2023-03-01T01:11:27;6.37;;;3.67;;
14754;SDS011;7469;50.906;6.952;2023-03-01T01:13:56;5.30;;;3.47;;
14754;SDS011;7469;50.906;6.952;2023-03-01T01:16:26;6.73;;;3.60;;
14754;SDS011;7469;50.906;6.952;2023-03-01T01:18:56;5.47;;;4.10;;
14754;SDS011;7469;50.906;6.952;2023-03-01T01:21:25;6.17;;;3.40;;
14754;SDS011;7469;50.906;6.952;2023-03-01T01:23:54;6.07;;;3.73;;
14754;SDS011;7469;50.906;6.952;2023-03-01T01:26:23;4.70;;;3.83;;
14754;SDS011;7469;50.906;6.952;2023-03-01T01:28:53;6.60;;;3.77;;
14754;SDS011;7469;50.906;6.952;2023-03-01T01:31:22;3.73;;;3.27;;
14754;SDS011;7469;50.906;6.952;2023-03-01T01:33:51;5.87;;;4.07;;
14754;SDS011;7469;50.906;6.952;2023-03-01T01:36:19;5.93;;;3.67;;
14754;SDS011;7469;50.906;6.952;2023-03-01T01:38:49;6.30;;;3.80;;
14754;SDS011;7469;50.906;6.952;2023-03-01T01:41:17;6.10;;;4.30;;
14754;SDS011;7469;50.906;6.952;2023-03-01T01:43:46;6.43;;;4.07;;
14754;SDS011;7469;50.906;6.952;2023-03-01T01:46:17;6.17;;;3.80;;
14754;SDS011;7469;50.906;6.952;2023-03-01T01:48:54;5.57;;;3.73;;
14754;SDS011;7469;50.906;6.952;2023-03-01T01:51:27;6.40;;;3.73;;
14754;SDS011;7469;50.906;6.952;2023-03-01T01:54:07;6.70;;;3.50;;
14754;SDS011;7469;50.906;6.952;2023-03-01T01:56:39;5.60;;;3.87;;
14754;SDS011;7469;50.906;6.952;2023-03-01T01:59:10;4.77;;;3.57;;
14754;SDS011;7469;50.906;6.952;2023-03-01T02:01:39;5.43;;;4.23;;
14754;SDS011;7469;50.906;6.952;2023-03-01T02:04:07;6.03;;;3.80;;
14754;SDS011;7469;50.906;6.952;2023-03-01T02:06:36;7.23;;;3.93;;
14754;SDS011;7469;50.906;6.952;2023-03-01T02:09:10;6.17;;;3.70;;
14754;SDS011;7469;50.906;6.952;2023-03-01T02:11:41;5.33;;;3.70;;
14754;SDS011;7469;50.906;6.952;2023-03-01T02:14:11;5.25;;;3.72;;
14754;SDS011;7469;50.906;6.952;2023-03-01T02:16:39;6.95;;;4.22;;
14754;SDS011;7469;50.906;6.952;2023-03-01T02:19:08;6.57;;;3.93;;
14754;SDS011;7469;50.906;6.952;2023-03-01T02:21:45;9.43;;;4.03;;
14754;SDS011;7469;50.906;6.952;2023-03-01T02:24:25;4.97;;;3.63;;
14754;SDS011;7469;50.906;6.952;2023-03-01T02:27:00;6.03;;;3.83;;
14754;SDS011;7469;50.906;6.952;2023-03-01T02:29:29;5.45;;;3.50;;
14754;SDS011;7469;50.906;6.952;2023-03-01T02:31:58;5.10;;;3.70;;
14754;SDS011;7469;50.906;6.952;2023-03-01T02:34:28;7.40;;;3.60;;
14754;SDS011;7469;50.906;6.952;2023-03-01T02:36:59;5.13;;;3.87;;
14754;SDS011;7469;50.906;6.952;2023-03-01T02:39:31;4.40;;;3.40;;
14754;SDS011;7469;50.906;6.952;2023-03-01T02:42:08;4.67;;;3.57;;
14754;SDS011;7469;50.906;6.952;2023-03-01T02:44:41;4.50;;;4.00;;
14754;SDS011;7469;50.906;6.952;2023-03-01T02:47:09;8.40;;;3.60;;
14754;SDS011;7469;50.906;6.952;2023-03-01T02:49:37;4.80;;;3.97;;
14754;SDS011;7469;50.906;6.952;2023-03-01T02:52:12;8.02;;;4.40;;
14754;SDS011;7469;50.906;6.952;2023-03-01T02:55:07;5.90;;;4.20;;
14754;SDS011;7469;50.906;6.952;2023-03-01T02:57:37;5.47;;;3.80;;
14754;SDS011;7469;50.906;6.952;2023-03-01T03:00:09;8.38;;;4.57;;
14754;SDS011;7469;50.906;6.952;2023-03-01T03:02:45;5.87;;;3.67;;
14754;SDS011;7469;50.906;6.952;2023-03-01T03:05:15;6.38;;;3.97;;
14754;SDS011;7469;50.906;6.952;2023-03-01T03:07:45;8.20;;;3.80;;
14754;SDS011;7469;50.906;6.952;2023-03-01T03:10:15;6.77;;;4.47;;
14754;SDS011;7469;50.906;6.952;2023-03-01T03:12:48;7.13;;;4.43;;
14754;SDS011;7469;50.906;6.952;2023-03-01T03:15:19;7.87;;;4.43;;
14754;SDS011;7469;50.906;6.952;2023-03-01T03:17:48;6.80;;;3.67;;
14754;SDS011;7469;50.906;6.952;2023-03-01T03:20:17;5.07;;;3.83;;
14754;SDS011;7469;50.906;6.952;2023-03-01T03:22:47;8.37;;;3.90;;
14754;SDS011;7469;50.906;6.952;2023-03-01T03:25:17;6.83;;;4.37;;
14754;SDS011;7469;50.906;6.952;2023-03-01T03:27:48;6.20;;;4.32;;
14754;SDS011;7469;50.906;6.952;2023-03-01T03:30:24;4.80;;;4.13;;
14754;SDS011;7469;50.906;6.952;2023-03-01T03:32:54;9.27;;;4.37;;
14754;SDS011;7469;50.906;6.952;2023-03-01T03:35:27;4.80;;;3.70;;
14754;SDS011;7469;50.906;6.952;2023-03-01T03:37:57;6.90;;;4.10;;
14754;SDS011;7469;50.906;6.952;2023-03-01T03:40:30;5.15;;;3.75;;
14754;SDS011;7469;50.906;6.952;2023-03-01T03:43:00;6.07;;;4.10;;
14754;SDS011;7469;50.906;6.952;2023-03-01T03:45:29;4.68;;;3.70;;
14754;SDS011;7469;50.906;6.952;2023-03-01T03:47:59;6.75;;;3.70;;
14754;SDS011;7469;50.906;6.952;2023-03-01T03:50:28;4.95;;;3.85;;
14754;SDS011;7469;50.906;6.952;2023-03-01T03:52:56;6.45;;;4.40;;
14754;SDS011;7469;50.906;6.952;2023-03-01T03:55:24;11.20;;;4.53;;
14754;SDS011;7469;50.906;6.952;2023-03-01T03:57:57;6.82;;;4.20;;
14754;SDS011;7469;50.906;6.952;2023-03-01T04:00:34;7.57;;;4.45;;
14754;SDS011;7469;50.906;6.952;2023-03-01T04:03:04;6.20;;;4.20;;
14754;SDS011;7469;50.906;6.952;2023-03-01T04:05:33;6.97;;;3.70;;
14754;SDS011;7469;50.906;6.952;2023-03-01T04:08:01;7.28;;;4.50;;
14754;SDS011;7469;50.906;6.952;2023-03-01T04:10:34;5.95;;;4.30;;
14754;SDS011;7469;50.906;6.952;2023-03-01T04:13:03;6.93;;;4.50;;
14754;SDS011;7469;50.906;6.952;2023-03-01T04:15:32;6.65;;;4.03;;
14754;SDS011;7469;50.906;6.952;2023-03-01T04:18:02;6.90;;;4.32;;
14754;SDS011;7469;50.906;6.952;2023-03-01T04:20:34;6.65;;;4.18;;
14754;SDS011;7469;50.906;6.952;2023-03-01T04:23:04;6.68;;;4.50;;
14754;SDS011;7469;50.906;6.952;2023-03-01T04:25:39;6.32;;;4.13;;
14754;SDS011;7469;50.906;6.952;2023-03-01T04:28:09;5.13;;;4.07;;
14754;SDS011;7469;50.906;6.952;2023-03-01T04:30:38;6.00;;;4.22;;
14754;SDS011;7469;50.906;6.952;2023-03-01T04:33:08;6.72;;;3.97;;
14754;SDS011;7469;50.906;6.952;2023-03-01T04:35:37;5.28;;;3.67;;
14754;SDS011;7469;50.906;6.952;2023-03-01T04:38:06;6.72;;;4.38;;
14754;SDS011;7469;50.906;6.952;2023-03-01T04:40:35;6.65;;;4.68;;
14754;SDS011;7469;50.906;6.952;2023-03-01T04:43:04;6.05;;;4.35;;
14754;SDS011;7469;50.906;6.952;2023-03-01T04:45:33;7.38;;;4.45;;
14754;SDS011;7469;50.906;6.952;2023-03-01T04:48:03;10.43;;;4.85;;
14754;SDS011;7469;50.906;6.952;2023-03-01T04:50:33;7.32;;;4.65;;
14754;SDS011;7469;50.906;6.952;2023-03-01T04:53:02;8.50;;;4.50;;
14754;SDS011;7469;50.906;6.952;2023-03-01T04:55:30;6.18;;;4.45;;
14754;SDS011;7469;50.906;6.952;2023-03-01T04:57:58;6.72;;;4.68;;
14754;SDS011;7469;50.906;6.952;2023-03-01T05:00:25;8.65;;;4.50;;
14754;SDS011;7469;50.906;6.952;2023-03-01T05:02:54;9.05;;;4.85;;
14754;SDS011;7469;50.906;6.952;2023-03-01T05:05:26;7.80;;;4.70;;
14754;SDS011;7469;50.906;6.952;2023-03-01T05:07:56;7.97;;;4.55;;
14754;SDS011;7469;50.906;6.952;2023-03-01T05:10:25;7.00;;;4.28;;
14754;SDS011;7469;50.906;6.952;2023-03-01T05:12:55;7.88;;;4.45;;
14754;SDS011;7469;50.906;6.952;2023-03-01T05:15:24;8.57;;;4.60;;
14754;SDS011;7469;50.906;6.952;2023-03-01T05:17:54;6.60;;;4.40;;
14754;SDS011;7469;50.906;6.952;2023-03-01T05:20:26;9.15;;;4.63;;
14754;SDS011;7469;50.906;6.952;2023-03-01T05:22:55;9.30;;;4.95;;
14754;SDS011;7469;50.906;6.952;2023-03-01T05:25:25;6.93;;;4.90;;
14754;SDS011;7469;50.906;6.952;2023-03-01T05:27:53;9.63;;;5.53;;
14754;SDS011;7469;50.906;6.952;2023-03-01T05:30:21;9.77;;;4.88;;
14754;SDS011;7469;50.906;6.952;2023-03-01T05:32:51;5.90;;;4.65;;
14754;SDS011;7469;50.906;6.952;2023-03-01T05:35:22;8.18;;;4.95;;
14754;SDS011;7469;50.906;6.952;2023-03-01T05:37:52;8.75;;;5.53;;
14754;SDS011;7469;50.906;6.952;2023-03-01T05:40:20;9.60;;;4.88;;
14754;SDS011;7469;50.906;6.952;2023-03-01T05:42:51;8.95;;;5.45;;
14754;SDS011;7469;50.906;6.952;2023-03-01T05:45:21;7.20;;;4.60;;
14754;SDS011;7469;50.906;6.952;2023-03-01T05:47:50;9.38;;;5.47;;
14754;SDS011;7469;50.906;6.952;2023-03-01T05:50:19;5.28;;;4.63;;
14754;SDS011;7469;50.906;6.952;2023-03-01T05:52:49;8.93;;;5.63;;
14754;SDS011;7469;50.906;6.952;2023-03-01T05:55:20;8.38;;;5.53;;
14754;SDS011;7469;50.906;6.952;2023-03-01T05:57:48;6.97;;;4.85;;
14754;SDS011;7469;50.906;6.952;2023-03-01T06:00:18;8.82;;;5.47;;
14754;SDS011;7469;50.906;6.952;2023-03-01T06:02:48;8.32;;;5.22;;
14754;SDS011;7469;50.906;6.952;2023-03-01T06:05:16;7.00;;;5.07;;
14754;SDS011;7469;50.906;6.952;2023-03-01T06:07:44;6.88;;;5.13;;
14754;SDS011;7469;50.906;6.952;2023-03-01T06:10:13;9.80;;;5.90;;
14754;SDS011;7469;50.906;6.952;2023-03-01T06:12:42;7.78;;;5.35;;
14754;SDS011;7469;50.906;6.952;2023-03-01T06:15:11;8.15;;;5.28;;
14754;SDS011;7469;50.906;6.952;2023-03-01T06:17:41;8.73;;;5.57;;
14754;SDS011;7469;50.906;6.952;2023-03-01T06:20:11;10.15;;;5.32;;
14754;SDS011;7469;50.906;6.952;2023-03-01T06:22:42;8.43;;;5.07;;
14754;SDS011;7469;50.906;6.952;2023-03-01T06:25:12;9.25;;;5.45;;
14754;SDS011;7469;50.906;6.952;2023-03-01T06:27:41;7.63;;;5.38;;
14754;SDS011;7469;50.906;6.952;2023-03-01T06:30:11;12.32;;;5.75;;
14754;SDS011;7469;50.906;6.952;2023-03-01T06:32:40;7.82;;;5.22;;
14754;SDS011;7469;50.906;6.952;2023-03-01T06:35:09;8.43;;;5.50;;
14754;SDS011;7469;50.906;6.952;2023-03-01T06:37:38;12.88;;;5.72;;
14754;SDS011;7469;50.906;6.952;2023-03-01T06:40:06;11.80;;;6.10;;
14754;SDS011;7469;50.906;6.952;2023-03-01T06:42:38;11.10;;;5.93;;
14754;SDS011;7469;50.906;6.952;2023-03-01T06:45:10;12.93;;;5.45;;
14754;SDS011;7469;50.906;6.952;2023-03-01T06:47:38;13.35;;;5.95;;
14754;SDS011;7469;50.906;6.952;2023-03-01T06:50:07;10.75;;;6.03;;
14754;SDS011;7469;50.906;6.952;2023-03-01T06:52:36;8.82;;;5.43;;
14754;SDS011;7469;50.906;6.952;2023-03-01T06:55:05;9.65;;;5.85;;
14754;SDS011;7469;50.906;6.952;2023-03-01T06:57:33;11.75;;;5.55;;
14754;SDS011;7469;50.906;6.952;2023-03-01T07:00:02;8.45;;;5.68;;
14754;SDS011;7469;50.906;6.952;2023-03-01T07:02:34;11.15;;;6.38;;
14754;SDS011;7469;50.906;6.952;2023-03-01T07:05:02;11.48;;;6.13;;
14754;SDS011;7469;50.906;6.952;2023-03-01T07:07:31;8.85;;;6.13;;
14754;SDS011;7469;50.906;6.952;2023-03-01T07:09:59;8.85;;;5.82;;
14754;SDS011;7469;50.906;6.952;2023-03-01T07:12:28;9.02;;;6.50;;
14754;SDS011;7469;50.906;6.952;2023-03-01T07:14:56;9.82;;;5.50;;
14754;SDS011;7469;50.906;6.952;2023-03-01T07:17:24;11.13;;;6.28;;
14754;SDS011;7469;50.906;6.952;2023-03-01T07:19:53;11.93;;;6.18;;
14754;SDS011;7469;50.906;6.952;2023-03-01T07:22:21;10.02;;;6.05;;
14754;SDS011;7469;50.906;6.952;2023-03-01T07:24:49;11.68;;;6.55;;
14754;SDS011;7469;50.906;6.952;2023-03-01T07:27:17;9.32;;;6.22;;
14754;SDS011;7469;50.906;6.952;2023-03-01T07:29:45;10.63;;;6.82;;
14754;SDS011;7469;50.906;6.952;2023-03-01T07:32:14;10.27;;;6.90;;
14754;SDS011;7469;50.906;6.952;2023-03-01T07:34:42;13.43;;;7.20;;
14754;SDS011;7469;50.906;6.952;2023-03-01T07:37:12;12.38;;;6.45;;
14754;SDS011;7469;50.906;6.952;2023-03-01T07:39:40;10.40;;;6.57;;
14754;SDS011;7469;50.906;6.952;2023-03-01T07:42:08;11.63;;;7.53;;
14754;SDS011;7469;50.906;6.952;2023-03-01T07:44:36;10.55;;;7.32;;
14754;SDS011;7469;50.906;6.952;2023-03-01T07:47:04;11.53;;;7.07;;
14754;SDS011;7469;50.906;6.952;2023-03-01T07:49:32;12.10;;;7.13;;
14754;SDS011;7469;50.906;6.952;2023-03-01T07:52:00;10.13;;;7.20;;
14754;SDS011;7469;50.906;6.952;2023-03-01T07:54:29;9.48;;;6.82;;
14754;SDS011;7469;50.906;6.952;2023-03-01T07:56:58;13.32;;;6.97;;
14754;SDS011;7469;50.906;6.952;2023-03-01T07:59:25;13.15;;;7.03;;
14754;SDS011;7469;50.906;6.952;2023-03-01T08:01:55;9.10;;;6.23;;
14754;SDS011;7469;50.906;6.952;2023-03-01T08:04:23;10.27;;;6.47;;
14754;SDS011;7469;50.906;6.952;2023-03-01T08:06:54;10.57;;;7.53;;
14754;SDS011;7469;50.906;6.952;2023-03-01T08:09:22;13.13;;;7.50;;
14754;SDS011;7469;50.906;6.952;2023-03-01T08:11:51;11.90;;;7.20;;
14754;SDS011;7469;50.906;6.952;2023-03-01T08:14:20;11.17;;;6.77;;
14754;SDS011;7469;50.906;6.952;2023-03-01T08:16:48;10.43;;;7.67;;
14754;SDS011;7469;50.906;6.952;2023-03-01T08:19:17;10.40;;;6.83;;
14754;SDS011;7469;50.906;6.952;2023-03-01T08:21:45;12.57;;;7.75;;
14754;SDS011;7469;50.906;6.952;2023-03-01T08:24:13;12.63;;;7.40;;
14754;SDS011;7469;50.906;6.952;2023-03-01T08:26:41;14.47;;;7.33;;
14754;SDS011;7469;50.906;6.952;2023-03-01T08:29:10;10.53;;;6.90;;
14754;SDS011;7469;50.906;6.952;2023-03-01T08:31:39;12.40;;;7.63;;
14754;SDS011;7469;50.906;6.952;2023-03-01T08:34:08;10.33;;;7.40;;
14754;SDS011;7469;50.906;6.952;2023-03-01T08:36:38;11.47;;;7.33;;
14754;SDS011;7469;50.906;6.952;2023-03-01T08:39:07;12.30;;;7.73;;
14754;SDS011;7469;50.906;6.952;2023-03-01T08:41:37;12.63;;;7.53;;
14754;SDS011;7469;50.906;6.952;2023-03-01T08:44:05;10.43;;;7.10;;
14754;SDS011;7469;50.906;6.952;2023-03-01T08:46:36;13.50;;;7.43;;
14754;SDS011;7469;50.906;6.952;2023-03-01T08:49:06;10.50;;;7.50;;
14754;SDS011;7469;50.906;6.952;2023-03-01T08:51:35;11.63;;;6.80;;
14754;SDS011;7469;50.906;6.952;2023-03-01T08:54:04;16.33;;;8.27;;
14754;SDS011;7469;50.906;6.952;2023-03-01T08:56:33;12.30;;;8.50;;
14754;SDS011;7469;50.906;6.952;2023-03-01T08:59:01;11.13;;;7.20;;
14754;SDS011;7469;50.906;6.952;2023-03-01T09:01:29;13.23;;;8.43;;
14754;SDS011;7469;50.906;6.952;2023-03-01T09:03:59;15.43;;;7.77;;
14754;SDS011;7469;50.906;6.952;2023-03-01T09:06:27;10.97;;;7.50;;
14754;SDS011;7469;50.906;6.952;2023-03-01T09:08:58;13.17;;;8.03;;
14754;SDS011;7469;50.906;6.952;2023-03-01T09:11:27;14.47;;;8.63;;
14754;SDS011;7469;50.906;6.952;2023-03-01T09:13:55;12.20;;;7.67;;
14754;SDS011;7469;50.906;6.952;2023-03-01T09:16:24;12.47;;;7.53;;
14754;SDS011;7469;50.906;6.952;2023-03-01T09:18:52;12.80;;;7.70;;
14754;SDS011;7469;50.906;6.952;2023-03-01T09:21:22;15.30;;;8.40;;
14754;SDS011;7469;50.906;6.952;2023-03-01T09:24:06;10.63;;;7.30;;
14754;SDS011;7469;50.906;6.952;2023-03-01T09:26:34;12.93;;;7.67;;
14754;SDS011;7469;50.906;6.952;2023-03-01T09:29:02;12.93;;;7.63;;
14754;SDS011;7469;50.906;6.952;2023-03-01T09:31:30;8.70;;;6.73;;
14754;SDS011;7469;50.906;6.952;2023-03-01T09:33:58;11.33;;;7.60;;
14754;SDS011;7469;50.906;6.952;2023-03-01T09:36:27;10.33;;;7.13;;
14754;SDS011;7469;50.906;6.952;2023-03-01T09:38:56;8.10;;;6.47;;
14754;SDS011;7469;50.906;6.952;2023-03-01T09:41:33;10.47;;;7.30;;
14754;SDS011;7469;50.906;6.952;2023-03-01T09:44:13;9.57;;;7.20;;
14754;SDS011;7469;50.906;6.952;2023-03-01T09:46:48;8.27;;;6.67;;
14754;SDS011;7469;50.906;6.952;2023-03-01T09:49:19;9.27;;;6.93;;
14754;SDS011;7469;50.906;6.952;2023-03-01T09:51:55;10.07;;;7.37;;
14754;SDS011;7469;50.906;6.952;2023-03-01T09:54:25;9.00;;;5.97;;
14754;SDS011;7469;50.906;6.952;2023-03-01T09:57:01;9.13;;;6.50;;
14754;SDS011;7469;50.906;6.952;2023-03-01T09:59:37;11.10;;;6.83;;
14754;SDS011;7469;50.906;6.952;2023-03-01T10:02:26;8.67;;;6.50;;
14754;SDS011;7469;50.906;6.952;2023-03-01T10:05:02;8.70;;;6.13;;
14754;SDS011;7469;50.906;6.952;2023-03-01T10:07:44;9.30;;;6.20;;
14754;SDS011;7469;50.906;6.952;2023-03-01T10:10:22;9.03;;;6.13;;
14754;SDS011;7469;50.906;6.952;2023-03-01T10:12:54;9.80;;;5.93;;
14754;SDS011;7469;50.906;6.952;2023-03-01T10:15:25;7.47;;;6.10;;
14754;SDS011;7469;50.906;6.952;2023-03-01T10:18:01;7.50;;;6.30;;
14754;SDS011;7469;50.906;6.952;2023-03-01T10:20:36;8.07;;;6.13;;
14754;SDS011;7469;50.906;6.952;2023-03-01T10:23:14;8.87;;;6.53;;
14754;SDS011;7469;50.906;6.952;2023-03-01T10:25:44;7.20;;;5.70;;
14754;SDS011;7469;50.906;6.952;2023-03-01T10:28:20;7.83;;;6.37;;
14754;SDS011;7469;50.906;6.952;2023-03-01T10:30:53;7.27;;;6.20;;
14754;SDS011;7469;50.906;6.952;2023-03-01T10:33:23;7.87;;;5.90;;
14754;SDS011;7469;50.906;6.952;2023-03-01T10:35:53;11.10;;;6.40;;
14754;SDS011;7469;50.906;6.952;2023-03-01T10:38:23;10.03;;;6.90;;
14754;SDS011;7469;50.906;6.952;2023-03-01T10:40:53;8.17;;;5.87;;
14754;SDS011;7469;50.906;6.952;2023-03-01T10:43:24;7.97;;;6.10;;
14754;SDS011;7469;50.906;6.952;2023-03-01T10:45:54;11.23;;;7.10;;
14754;SDS011;7469;50.906;6.952;2023-03-01T10:48:22;10.17;;;6.43;;
14754;SDS011;7469;50.906;6.952;2023-03-01T10:51:04;7.00;;;5.53;;
14754;SDS011;7469;50.906;6.952;2023-03-01T10:53:35;9.97;;;6.20;;
14754;SDS011;7469;50.906;6.952;2023-03-01T10:56:05;7.03;;;6.13;;
14754;SDS011;7469;50.906;6.952;2023-03-01T10:58:36;9.27;;;6.73;;
14754;SDS011;7469;50.906;6.952;2023-03-01T11:01:06;8.67;;;6.00;;
14754;SDS011;7469;50.906;6.952;2023-03-01T11:04:03;7.83;;;6.03;;
14754;SDS011;7469;50.906;6.952;2023-03-01T11:06:38;10.23;;;6.00;;
14754;SDS011;7469;50.906;6.952;2023-03-01T11:09:15;8.27;;;6.20;;
14754;SDS011;7469;50.906;6.952;2023-03-01T11:11:47;5.97;;;5.27;;
14754;SDS011;7469;50.906;6.952;2023-03-01T11:14:20;9.27;;;5.60;;
14754;SDS011;7469;50.906;6.952;2023-03-01T11:17:00;10.80;;;6.37;;
14754;SDS011;7469;50.906;6.952;2023-03-01T11:19:29;8.57;;;5.80;;
14754;SDS011;7469;50.906;6.952;2023-03-01T11:22:00;8.70;;;5.93;;
14754;SDS011;7469;50.906;6.952;2023-03-01T11:24:34;8.57;;;5.70;;
14754;SDS011;7469;50.906;6.952;2023-03-01T11:27:12;7.20;;;6.03;;
14754;SDS011;7469;50.906;6.952;2023-03-01T11:29:45;9.07;;;6.07;;
14754;SDS011;7469;50.906;6.952;2023-03-01T11:32:17;7.43;;;5.83;;
14754;SDS011;7469;50.906;6.952;2023-03-01T11:34:50;9.60;;;5.67;;
14754;SDS011;7469;50.906;6.952;2023-03-01T11:37:24;9.27;;;5.70;;
14754;SDS011;7469;50.906;6.952;2023-03-01T11:40:01;11.17;;;5.93;;
14754;SDS011;7469;50.906;6.952;2023-03-01T11:42:46;7.30;;;5.50;;
14754;SDS011;7469;50.906;6.952;2023-03-01T11:45:22;8.57;;;5.57;;
14754;SDS011;7469;50.906;6.952;2023-03-01T11:47:58;8.53;;;5.90;;
14754;SDS011;7469;50.906;6.952;2023-03-01T11:50:41;10.20;;;5.63;;
14754;SDS011;7469;50.906;6.952;2023-03-01T11:53:29;9.70;;;5.87;;
14754;SDS011;7469;50.906;6.952;2023-03-01T11:56:12;6.30;;;5.63;;
14754;SDS011;7469;50.906;6.952;2023-03-01T11:59:03;8.57;;;5.67;;
14754;SDS011;7469;50.906;6.952;2023-03-01T12:01:48;8.07;;;5.53;;
14754;SDS011;7469;50.906;6.952;2023-03-01T12:07:37;6.70;;;5.60;;
14754;SDS011;7469;50.906;6.952;2023-03-01T12:10:20;9.57;;;6.53;;
14754;SDS011;7469;50.906;6.952;2023-03-01T12:12:57;6.83;;;5.80;;
14754;SDS011;7469;50.906;6.952;2023-03-01T12:15:47;7.83;;;6.23;;
14754;SDS011;7469;50.906;6.952;2023-03-01T12:22:03;7.77;;;5.87;;
14754;SDS011;7469;50.906;6.952;2023-03-01T12:24:51;10.83;;;6.30;;
14754;SDS011;7469;50.906;6.952;2023-03-01T12:27:39;9.53;;;6.00;;
14754;SDS011;7469;50.906;6.952;2023-03-01T12:30:24;6.57;;;5.33;;
14754;SDS011;7469;50.906;6.952;2023-03-01T12:33:00;8.17;;;6.10;;
14754;SDS011;7469;50.906;6.952;2023-03-01T12:35:44;9.90;;;6.33;;
14754;SDS011;7469;50.906;6.952;2023-03-01T12:38:29;12.63;;;6.27;;
14754;SDS011;7469;50.906;6.952;2023-03-01T12:43:54;8.43;;;5.50;;
14754;SDS011;7469;50.906;6.952;2023-03-01T12:46:33;7.00;;;5.57;;
14754;SDS011;7469;50.906;6.952;2023-03-01T12:49:12;8.70;;;5.73;;
14754;SDS011;7469;50.906;6.952;2023-03-01T12:51:44;8.27;;;5.97;;
14754;SDS011;7469;50.906;6.952;2023-03-01T12:54:20;7.60;;;5.73;;
14754;SDS011;7469;50.906;6.952;2023-03-01T12:56:55;8.00;;;5.50;;
14754;SDS011;7469;50.906;6.952;2023-03-01T12:59:26;8.30;;;5.60;;
14754;SDS011;7469;50.906;6.952;2023-03-01T13:02:03;7.77;;;5.47;;
14754;SDS011;7469;50.906;6.952;2023-03-01T13:04:48;7.77;;;5.40;;
14754;SDS011;7469;50.906;6.952;2023-03-01T13:07:28;6.93;;;5.13;;
14754;SDS011;7469;50.906;6.952;2023-03-01T13:10:14;7.20;;;5.63;;
14754;SDS011;7469;50.906;6.952;2023-03-01T13:12:56;7.77;;;5.33;;
14754;SDS011;7469;50.906;6.952;2023-03-01T13:15:31;8.03;;;5.43;;
14754;SDS011;7469;50.906;6.952;2023-03-01T13:18:03;8.47;;;5.40;;
14754;SDS011;7469;50.906;6.952;2023-03-01T13:20:52;9.23;;;5.50;;
14754;SDS011;7469;50.906;6.952;2023-03-01T13:23:24;8.73;;;5.73;;
14754;SDS011;7469;50.906;6.952;2023-03-01T13:26:00;7.97;;;5.10;;
14754;SDS011;7469;50.906;6.952;2023-03-01T13:34:43;7.57;;;5.03;;
14754;SDS011;7469;50.906;6.952;2023-03-01T13:37:20;6.50;;;4.93;;
14754;SDS011;7469;50.906;6.952;2023-03-01T13:40:00;8.37;;;5.73;;
14754;SDS011;7469;50.906;6.952;2023-03-01T13:42:53;8.27;;;5.60;;
14754;SDS011;7469;50.906;6.952;2023-03-01T13:45:36;8.63;;;5.07;;
14754;SDS011;7469;50.906;6.952;2023-03-01T13:48:08;7.57;;;4.90;;
14754;SDS011;7469;50.906;6.952;2023-03-01T13:50:45;8.13;;;5.30;;
14754;SDS011;7469;50.906;6.952;2023-03-01T13:53:18;8.33;;;5.17;;
14754;SDS011;7469;50.906;6.952;2023-03-01T13:55:49;8.87;;;5.20;;
14754;SDS011;7469;50.906;6.952;2023-03-01T13:58:22;7.50;;;5.50;;
14754;SDS011;7469;50.906;6.952;2023-03-01T14:00:55;10.03;;;4.80;;
14754;SDS011;7469;50.906;6.952;2023-03-01T14:03:24;8.90;;;5.97;;
14754;SDS011;7469;50.906;6.952;2023-03-01T14:06:02;6.97;;;5.00;;
14754;SDS011;7469;50.906;6.952;2023-03-01T14:08:41;7.00;;;5.13;;
14754;SDS011;7469;50.906;6.952;2023-03-01T14:20:10;6.73;;;5.40;;
14754;SDS011;7469;50.906;6.952;2023-03-01T14:22:44;10.70;;;5.60;;
14754;SDS011;7469;50.906;6.952;2023-03-01T14:25:20;8.97;;;5.33;;
14754;SDS011;7469;50.906;6.952;2023-03-01T14:27:55;8.13;;;5.37;;
14754;SDS011;7469;50.906;6.952;2023-03-01T14:30:25;7.00;;;5.47;;
14754;SDS011;7469;50.906;6.952;2023-03-01T14:32:58;7.30;;;5.03;;
14754;SDS011;7469;50.906;6.952;2023-03-01T14:35:28;6.73;;;4.73;;
14754;SDS011;7469;50.906;6.952;2023-03-01T14:37:59;6.70;;;4.60;;
14754;SDS011;7469;50.906;6.952;2023-03-01T14:40:27;6.20;;;4.57;;
14754;SDS011;7469;50.906;6.952;2023-03-01T14:42:58;5.30;;;4.37;;
14754;SDS011;7469;50.906;6.952;2023-03-01T14:45:29;8.83;;;5.33;;
14754;SDS011;7469;50.906;6.952;2023-03-01T14:47:58;4.60;;;3.83;;
14754;SDS011;7469;50.906;6.952;2023-03-01T14:50:29;6.10;;;4.27;;
14754;SDS011;7469;50.906;6.952;2023-03-01T14:53:00;7.40;;;4.93;;
14754;SDS011;7469;50.906;6.952;2023-03-01T14:55:31;7.17;;;4.90;;
14754;SDS011;7469;50.906;6.952;2023-03-01T14:58:02;6.83;;;5.07;;
14754;SDS011;7469;50.906;6.952;2023-03-01T15:00:31;10.37;;;5.53;;
14754;SDS011;7469;50.906;6.952;2023-03-01T15:03:02;6.53;;;5.10;;
14754;SDS011;7469;50.906;6.952;2023-03-01T15:05:40;9.30;;;4.93;;
14754;SDS011;7469;50.906;6.952;2023-03-01T15:08:16;8.70;;;5.03;;
14754;SDS011;7469;50.906;6.952;2023-03-01T15:10:58;6.30;;;4.93;;
14754;SDS011;7469;50.906;6.952;2023-03-01T15:13:29;11.87;;;5.10;;
14754;SDS011;7469;50.906;6.952;2023-03-01T15:16:03;8.40;;;4.90;;
14754;SDS011;7469;50.906;6.952;2023-03-01T15:18:34;6.90;;;5.03;;
14754;SDS011;7469;50.906;6.952;2023-03-01T15:21:06;7.43;;;4.90;;
14754;SDS011;7469;50.906;6.952;2023-03-01T15:23:37;8.63;;;5.33;;
14754;SDS011;7469;50.906;6.952;2023-03-01T15:26:16;10.77;;;5.07;;
14754;SDS011;7469;50.906;6.952;2023-03-01T15:28:51;8.33;;;5.00;;
14754;SDS011;7469;50.906;6.952;2023-03-01T15:31:25;8.30;;;4.97;;
14754;SDS011;7469;50.906;6.952;2023-03-01T15:34:07;5.13;;;4.50;;
14754;SDS011;7469;50.906;6.952;2023-03-01T15:36:38;7.63;;;5.17;;
14754;SDS011;7469;50.906;6.952;2023-03-01T15:39:32;10.63;;;4.77;;
14754;SDS011;7469;50.906;6.952;2023-03-01T15:42:05;7.03;;;5.23;;
14754;SDS011;7469;50.906;6.952;2023-03-01T15:44:35;6.57;;;5.40;;
14754;SDS011;7469;50.906;6.952;2023-03-01T15:47:21;10.10;;;5.10;;
14754;SDS011;7469;50.906;6.952;2023-03-01T15:49:53;6.13;;;4.57;;
14754;SDS011;7469;50.906;6.952;2023-03-01T15:52:23;8.33;;;5.03;;